Time;durP1;ratioP1;P1;durP2;ratioP2;P2;SDS_P1;SDS_P2;PMS_P1;PMS_P2;Temp;Humidity;BMP_temperature;BMP_pressure;BME280_temperature;BME280_humidity;BME280_pressure;Samples;Min_cycle;Max_cycle;Signal;HPM_P1;HPM_P2
2021/07/16 00:01:58;;;;;;;;;15.00;13.00;;;;;;;;5065481;27;51072;-52
2021/07/16 00:04:23;;;;;;;;;14.00;12.33;;;;;;;;5068738;28;51323;-53
2021/07/16 00:06:49;;;;;;;;;16.00;14.67;;;;;;;;5071326;28;51149;-52
2021/07/16 00:09:14;;;;;;;;;12.33;11.00;;;;;;;;5075612;27;51043;-54
2021/07/16 00:11:40;;;;;;;;;17.33;17.00;;;;;;;;5069126;28;51137;-54
2021/07/16 00:14:05;;;;;;;;;12.00;12.00;;;;;;;;5069506;28;51329;-52
2021/07/16 00:16:31;;;;;;;;;15.00;14.00;;;;;;;;5067409;27;52164;-53
2021/07/16 00:18:56;;;;;;;;;16.00;15.00;;;;;;;;5067854;28;50997;-55
2021/07/16 00:21:21;;;;;;;;;15.00;14.00;;;;;;;;5071918;27;51142;-52
2021/07/16 00:23:47;;;;;;;;;15.67;15.00;;;;;;;;5066343;28;51253;-49
2021/07/16 00:26:13;;;;;;;;;13.33;13.00;;;;;;;;5064493;27;51215;-52
2021/07/16 00:28:38;;;;;;;;;11.00;11.00;;;;;;;;5073902;27;51213;-51
2021/07/16 00:31:03;;;;;;;;;16.00;15.00;;;;;;;;5074943;27;51251;-52
2021/07/16 00:33:28;;;;;;;;;11.67;11.67;;;;;;;;5070782;27;51334;-52
2021/07/16 00:35:54;;;;;;;;;12.00;12.00;;;;;;;;5074246;27;52256;-52
2021/07/16 00:38:19;;;;;;;;;13.67;12.33;;;;;;;;5073061;27;50920;-52
2021/07/16 00:40:44;;;;;;;;;17.00;15.00;;;;;;;;5073899;28;51015;-50
2021/07/16 00:43:09;;;;;;;;;14.33;13.00;;;;;;;;5073833;27;51082;-53
2021/07/16 00:45:34;;;;;;;;;15.67;15.67;;;;;;;;5070433;27;52016;-52
2021/07/16 00:48:00;;;;;;;;;11.67;10.67;;;;;;;;5071305;27;51060;-52
2021/07/16 00:50:43;;;;;;;;;16.33;13.67;;;;;;;;5074357;27;50945;-52
2021/07/16 00:53:09;;;;;;;;;15.00;14.33;;;;;;;;5073660;27;51279;-52
2021/07/16 00:55:35;;;;;;;;;15.00;14.33;;;;;;;;5074403;27;51110;-52
2021/07/16 00:58:00;;;;;;;;;14.67;13.00;;;;;;;;5072128;27;51088;-51
2021/07/16 01:00:26;;;;;;;;;13.67;12.67;;;;;;;;5068057;27;50865;-52
2021/07/16 01:02:51;;;;;;;;;10.00;10.00;;;;;;;;5070654;27;51109;-52
2021/07/16 01:05:17;;;;;;;;;14.00;13.33;;;;;;;;5067319;27;53116;-52
2021/07/16 01:07:44;;;;;;;;;13.67;11.67;;;;;;;;5074676;27;50999;-52
2021/07/16 01:10:10;;;;;;;;;13.67;13.00;;;;;;;;5074567;27;51051;-52
2021/07/16 01:12:39;;;;;;;;;12.00;11.67;;;;;;;;5072934;27;51271;-50
2021/07/16 01:15:06;;;;;;;;;10.67;8.67;;;;;;;;5074244;27;51995;-51
2021/07/16 01:17:32;;;;;;;;;14.00;12.00;;;;;;;;5068446;28;51001;-52
2021/07/16 01:20:04;;;;;;;;;13.33;13.33;;;;;;;;5071675;27;51096;-52
2021/07/16 01:22:31;;;;;;;;;11.33;11.00;;;;;;;;5073625;27;51055;-51
2021/07/16 01:25:01;;;;;;;;;10.67;10.67;;;;;;;;5071810;28;51106;-53
2021/07/16 01:27:26;;;;;;;;;14.67;13.33;;;;;;;;5073940;27;50985;-51
2021/07/16 01:29:52;;;;;;;;;13.00;12.33;;;;;;;;5074098;27;50984;-53
2021/07/16 01:32:17;;;;;;;;;12.67;12.67;;;;;;;;5062259;28;50999;-54
2021/07/16 01:34:44;;;;;;;;;15.67;14.67;;;;;;;;5073922;28;51118;-54
2021/07/16 01:37:09;;;;;;;;;13.33;13.00;;;;;;;;5065681;27;50858;-53
2021/07/16 01:39:34;;;;;;;;;12.33;12.33;;;;;;;;5073968;27;51260;-53
2021/07/16 01:42:02;;;;;;;;;11.67;10.33;;;;;;;;5072818;27;51299;-54
2021/07/16 01:44:27;;;;;;;;;14.67;14.67;;;;;;;;5070517;27;52693;-54
2021/07/16 01:46:52;;;;;;;;;12.00;11.33;;;;;;;;5069271;28;51088;-53
2021/07/16 01:49:17;;;;;;;;;12.33;12.33;;;;;;;;5074023;27;51105;-53
2021/07/16 01:51:43;;;;;;;;;14.67;13.67;;;;;;;;5072547;28;51091;-54
2021/07/16 01:54:08;;;;;;;;;11.00;11.00;;;;;;;;5072683;27;51875;-53
2021/07/16 01:56:33;;;;;;;;;14.33;13.67;;;;;;;;5073567;27;51218;-52
2021/07/16 01:58:58;;;;;;;;;11.33;10.00;;;;;;;;5073786;27;50995;-54
2021/07/16 02:01:24;;;;;;;;;13.67;11.33;;;;;;;;5072477;27;51223;-55
2021/07/16 02:03:50;;;;;;;;;11.33;10.00;;;;;;;;5073332;28;52380;-53
2021/07/16 02:06:16;;;;;;;;;12.33;12.33;;;;;;;;5072779;27;50997;-53
2021/07/16 02:08:41;;;;;;;;;13.33;13.33;;;;;;;;5073537;27;51104;-53
2021/07/16 02:11:06;;;;;;;;;12.33;11.33;;;;;;;;5067979;28;51330;-54
2021/07/16 02:13:31;;;;;;;;;9.67;9.67;;;;;;;;5062684;28;52601;-53
2021/07/16 02:15:58;;;;;;;;;11.00;10.00;;;;;;;;5067471;28;51097;-53
2021/07/16 02:18:23;;;;;;;;;12.33;12.33;;;;;;;;5072226;28;51025;-55
2021/07/16 02:20:49;;;;;;;;;12.00;11.33;;;;;;;;5071983;27;51241;-54
2021/07/16 02:23:18;;;;;;;;;11.33;10.00;;;;;;;;5072930;27;52222;-53
2021/07/16 02:25:44;;;;;;;;;9.67;8.33;;;;;;;;5073172;27;51001;-54
2021/07/16 02:28:14;;;;;;;;;14.33;12.67;;;;;;;;5073220;27;51076;-52
2021/07/16 02:30:39;;;;;;;;;10.00;10.00;;;;;;;;5072473;27;51041;-54
2021/07/16 02:33:04;;;;;;;;;11.00;10.33;;;;;;;;5058624;27;53280;-54
2021/07/16 02:35:30;;;;;;;;;12.00;9.00;;;;;;;;5072657;27;50851;-54
2021/07/16 02:37:56;;;;;;;;;11.00;10.33;;;;;;;;5071912;28;51123;-54
2021/07/16 02:40:21;;;;;;;;;11.67;10.33;;;;;;;;5073255;27;50986;-54
2021/07/16 02:42:47;;;;;;;;;12.67;11.33;;;;;;;;5071643;27;51014;-53
2021/07/16 02:45:14;;;;;;;;;10.67;9.67;;;;;;;;5073119;28;50909;-53
2021/07/16 02:47:40;;;;;;;;;9.00;8.67;;;;;;;;5071520;28;50969;-54
2021/07/16 02:50:06;;;;;;;;;11.00;10.00;;;;;;;;5070946;28;51040;-54
2021/07/16 02:52:31;;;;;;;;;11.00;9.00;;;;;;;;5072239;28;50958;-54
2021/07/16 02:54:56;;;;;;;;;10.00;9.67;;;;;;;;5072090;28;50955;-52
2021/07/16 02:57:21;;;;;;;;;10.00;9.33;;;;;;;;5071673;27;51159;-54
2021/07/16 02:59:47;;;;;;;;;13.33;12.33;;;;;;;;5072815;27;51314;-53
2021/07/16 03:02:12;;;;;;;;;9.00;9.00;;;;;;;;5072567;27;51003;-55
2021/07/16 03:04:37;;;;;;;;;11.67;8.67;;;;;;;;5070811;27;51147;-53
2021/07/16 03:07:02;;;;;;;;;10.00;9.00;;;;;;;;5066158;27;51140;-54
2021/07/16 03:09:30;;;;;;;;;10.67;10.00;;;;;;;;5066474;28;51379;-51
2021/07/16 03:11:55;;;;;;;;;10.67;10.33;;;;;;;;5072526;27;52356;-54
2021/07/16 03:14:21;;;;;;;;;11.00;11.00;;;;;;;;5058164;27;51046;-54
2021/07/16 03:16:46;;;;;;;;;10.67;10.33;;;;;;;;5067711;27;51295;-52
2021/07/16 03:19:11;;;;;;;;;10.67;10.00;;;;;;;;5059139;27;51086;-52
2021/07/16 03:21:36;;;;;;;;;10.33;10.33;;;;;;;;5073383;28;52131;-53
2021/07/16 03:24:02;;;;;;;;;9.00;8.33;;;;;;;;5074730;28;51036;-52
2021/07/16 03:26:27;;;;;;;;;12.33;10.00;;;;;;;;5072241;27;51279;-52
2021/07/16 03:28:52;;;;;;;;;10.67;9.33;;;;;;;;5070374;28;51165;-54
2021/07/16 03:31:17;;;;;;;;;15.67;14.33;;;;;;;;5075730;27;52084;-53
2021/07/16 03:33:43;;;;;;;;;8.67;8.00;;;;;;;;5067070;27;51161;-52
2021/07/16 03:36:08;;;;;;;;;12.67;12.67;;;;;;;;5075210;27;50959;-51
2021/07/16 03:38:34;;;;;;;;;10.33;9.00;;;;;;;;5071501;27;51124;-52
2021/07/16 03:41:01;;;;;;;;;9.67;8.67;;;;;;;;5074381;28;52741;-52
2021/07/16 03:43:26;;;;;;;;;9.33;8.67;;;;;;;;5074535;27;51052;-52
2021/07/16 03:45:52;;;;;;;;;9.33;8.33;;;;;;;;5068812;27;51160;-54
2021/07/16 03:48:17;;;;;;;;;8.67;8.33;;;;;;;;5068967;28;50942;-53
2021/07/16 03:50:42;;;;;;;;;9.00;8.33;;;;;;;;5075409;27;50989;-51
2021/07/16 03:53:08;;;;;;;;;7.33;7.33;;;;;;;;5071356;27;51025;-53
2021/07/16 03:55:33;;;;;;;;;8.33;7.67;;;;;;;;5073539;28;51033;-55
2021/07/16 03:57:58;;;;;;;;;8.00;8.00;;;;;;;;5073547;27;50914;-53
2021/07/16 04:00:28;;;;;;;;;7.67;7.33;;;;;;;;5070014;28;52004;-53
2021/07/16 04:02:53;;;;;;;;;8.33;8.00;;;;;;;;5067929;28;51453;-53
2021/07/16 04:05:19;;;;;;;;;8.00;7.00;;;;;;;;5074238;27;51330;-53
2021/07/16 04:07:48;;;;;;;;;8.00;8.00;;;;;;;;5062878;27;51317;-53
2021/07/16 04:10:14;;;;;;;;;7.33;7.00;;;;;;;;5062616;28;51033;-53
2021/07/16 04:12:40;;;;;;;;;11.00;10.00;;;;;;;;5075176;27;51017;-53
2021/07/16 04:15:05;;;;;;;;;6.67;6.33;;;;;;;;5073822;27;50890;-53
2021/07/16 04:17:32;;;;;;;;;7.67;7.67;;;;;;;;5068080;28;51070;-54
2021/07/16 04:19:57;;;;;;;;;9.33;9.33;;;;;;;;5074929;28;52357;-53
2021/07/16 04:22:23;;;;;;;;;8.33;7.33;;;;;;;;5075147;27;50917;-53
2021/07/16 04:24:49;;;;;;;;;8.33;8.33;;;;;;;;5065169;27;51225;-53
2021/07/16 04:27:14;;;;;;;;;8.67;8.00;;;;;;;;5071038;27;51048;-53
2021/07/16 04:29:40;;;;;;;;;8.67;8.00;;;;;;;;5075181;28;52132;-53
2021/07/16 04:32:06;;;;;;;;;7.67;7.33;;;;;;;;5074953;28;50966;-52
2021/07/16 04:34:32;;;;;;;;;8.67;8.67;;;;;;;;5064666;27;51327;-52
2021/07/16 04:36:59;;;;;;;;;7.33;6.67;;;;;;;;5069205;28;51091;-53
2021/07/16 04:39:25;;;;;;;;;5.67;5.67;;;;;;;;5073180;27;52053;-51
2021/07/16 04:41:50;;;;;;;;;7.67;6.67;;;;;;;;5074833;27;51206;-52
2021/07/16 04:44:16;;;;;;;;;7.00;7.00;;;;;;;;5073166;28;50870;-54
2021/07/16 04:46:41;;;;;;;;;6.33;6.33;;;;;;;;5074894;27;51067;-52
2021/07/16 04:49:07;;;;;;;;;9.00;8.00;;;;;;;;5073435;28;51097;-53
2021/07/16 04:51:33;;;;;;;;;8.67;7.67;;;;;;;;5072689;28;51015;-52
2021/07/16 04:53:59;;;;;;;;;7.67;7.67;;;;;;;;5073596;27;51231;-52
2021/07/16 04:56:24;;;;;;;;;5.33;5.33;;;;;;;;5074670;27;51772;-54
2021/07/16 04:58:50;;;;;;;;;9.33;7.67;;;;;;;;5074450;27;51604;-53
2021/07/16 05:01:15;;;;;;;;;8.67;8.67;;;;;;;;5074559;27;51041;-53
2021/07/16 05:03:41;;;;;;;;;7.67;7.33;;;;;;;;5071785;28;51232;-53
2021/07/16 05:06:06;;;;;;;;;9.67;8.00;;;;;;;;5072361;27;51153;-53
2021/07/16 05:08:31;;;;;;;;;8.00;7.67;;;;;;;;5074258;28;50977;-51
2021/07/16 05:10:57;;;;;;;;;7.67;7.67;;;;;;;;5074548;27;51049;-53
2021/07/16 05:13:22;;;;;;;;;8.00;7.33;;;;;;;;5066667;27;50970;-50
2021/07/16 05:15:47;;;;;;;;;7.67;7.00;;;;;;;;5063840;28;51024;-52
2021/07/16 05:18:12;;;;;;;;;9.33;9.33;;;;;;;;5061162;27;51134;-54
2021/07/16 05:20:38;;;;;;;;;8.00;7.67;;;;;;;;5073869;27;51127;-53
2021/07/16 05:23:03;;;;;;;;;9.67;8.67;;;;;;;;5072726;27;51202;-50
2021/07/16 05:25:28;;;;;;;;;9.00;9.00;;;;;;;;5073129;28;51338;-53
2021/07/16 05:27:53;;;;;;;;;8.67;8.00;;;;;;;;5072598;27;52939;-53
2021/07/16 05:30:19;;;;;;;;;7.67;7.00;;;;;;;;5072815;27;52706;-54
2021/07/16 05:32:44;;;;;;;;;8.00;7.67;;;;;;;;5057390;28;51226;-54
2021/07/16 05:35:10;;;;;;;;;8.00;8.00;;;;;;;;5061928;28;51058;-54
2021/07/16 05:37:35;;;;;;;;;7.00;6.67;;;;;;;;5064492;27;51056;-53
2021/07/16 05:40:00;;;;;;;;;8.00;8.00;;;;;;;;5072029;28;51889;-51
2021/07/16 05:42:26;;;;;;;;;8.67;8.00;;;;;;;;5073432;27;51163;-53
2021/07/16 05:44:51;;;;;;;;;7.67;6.67;;;;;;;;5073658;27;51299;-54
2021/07/16 05:47:16;;;;;;;;;8.67;8.33;;;;;;;;5070163;27;52275;-53
2021/07/16 05:49:41;;;;;;;;;8.33;8.33;;;;;;;;5073765;27;50931;-51
2021/07/16 05:52:07;;;;;;;;;9.33;8.33;;;;;;;;5073267;28;50946;-54
2021/07/16 05:54:32;;;;;;;;;4.00;4.00;;;;;;;;5072435;28;51426;-54
2021/07/16 05:56:57;;;;;;;;;7.67;7.00;;;;;;;;5073314;28;51965;-53
2021/07/16 05:59:22;;;;;;;;;7.67;7.33;;;;;;;;5059638;27;51157;-54
2021/07/16 06:01:48;;;;;;;;;8.00;7.00;;;;;;;;5074350;27;50906;-52
2021/07/16 06:04:13;;;;;;;;;5.33;5.33;;;;;;;;5074120;27;51372;-53
2021/07/16 06:06:38;;;;;;;;;7.00;7.00;;;;;;;;5073663;28;51061;-53
2021/07/16 06:09:04;;;;;;;;;5.67;5.67;;;;;;;;5073899;27;51145;-54
2021/07/16 06:11:30;;;;;;;;;9.33;8.67;;;;;;;;5072863;27;50991;-54
2021/07/16 06:13:55;;;;;;;;;8.67;8.67;;;;;;;;5073122;27;51273;-53
2021/07/16 06:16:20;;;;;;;;;7.33;5.67;;;;;;;;5071204;28;51070;-54
2021/07/16 06:18:45;;;;;;;;;6.33;6.33;;;;;;;;5073203;27;51158;-53
2021/07/16 06:21:11;;;;;;;;;6.33;5.67;;;;;;;;5074630;27;51180;-55
2021/07/16 06:23:36;;;;;;;;;6.33;6.00;;;;;;;;5078704;27;51059;-54
2021/07/16 06:26:01;;;;;;;;;6.33;6.00;;;;;;;;5072945;27;51227;-52
2021/07/16 06:28:27;;;;;;;;;9.00;8.00;;;;;;;;5072812;27;51110;-53
2021/07/16 06:30:52;;;;;;;;;5.00;4.67;;;;;;;;5063748;27;51450;-51
2021/07/16 06:33:17;;;;;;;;;7.67;7.00;;;;;;;;5070123;27;51312;-56
2021/07/16 06:35:43;;;;;;;;;7.00;6.33;;;;;;;;5070923;27;52072;-52
2021/07/16 06:38:08;;;;;;;;;4.67;4.67;;;;;;;;5075385;27;50997;-54
2021/07/16 06:40:33;;;;;;;;;8.33;8.00;;;;;;;;5066380;27;51135;-51
2021/07/16 06:42:59;;;;;;;;;4.33;4.33;;;;;;;;5074873;27;50929;-53
2021/07/16 06:45:24;;;;;;;;;5.67;4.67;;;;;;;;5070885;27;52797;-54
2021/07/16 06:47:49;;;;;;;;;5.00;5.00;;;;;;;;5072329;27;51048;-53
2021/07/16 06:50:15;;;;;;;;;6.67;5.33;;;;;;;;5071849;28;51031;-54
2021/07/16 06:52:40;;;;;;;;;6.67;5.00;;;;;;;;5072829;28;50987;-53
2021/07/16 06:55:06;;;;;;;;;5.67;4.67;;;;;;;;5072091;28;51057;-54
2021/07/16 06:57:31;;;;;;;;;6.00;5.67;;;;;;;;5071310;27;51056;-53
2021/07/16 06:59:56;;;;;;;;;5.33;5.33;;;;;;;;5070966;28;51055;-54
2021/07/16 07:02:21;;;;;;;;;4.67;4.67;;;;;;;;5072594;27;51205;-53
2021/07/16 07:04:47;;;;;;;;;4.00;4.00;;;;;;;;5052078;28;53184;-54
2021/07/16 07:07:12;;;;;;;;;5.67;5.00;;;;;;;;5072260;27;51104;-53
2021/07/16 07:09:37;;;;;;;;;1.67;1.67;;;;;;;;5070355;27;51500;-52
2021/07/16 07:12:02;;;;;;;;;5.67;4.67;;;;;;;;5070961;27;50930;-55
2021/07/16 07:14:28;;;;;;;;;5.67;4.67;;;;;;;;5072034;27;52303;-54
2021/07/16 07:16:53;;;;;;;;;3.67;2.67;;;;;;;;5067706;28;51029;-53
2021/07/16 07:19:18;;;;;;;;;4.67;4.33;;;;;;;;5072006;27;51010;-53
2021/07/16 07:21:44;;;;;;;;;5.00;5.00;;;;;;;;5071972;27;51316;-54
2021/07/16 07:24:09;;;;;;;;;3.00;3.00;;;;;;;;5071485;27;52092;-54
2021/07/16 07:26:35;;;;;;;;;3.33;3.33;;;;;;;;5071978;27;51143;-55
2021/07/16 07:29:00;;;;;;;;;4.33;4.00;;;;;;;;5072161;27;50956;-53
2021/07/16 07:31:26;;;;;;;;;4.33;3.67;;;;;;;;5072410;28;50955;-51
2021/07/16 07:33:51;;;;;;;;;4.00;3.00;;;;;;;;5071469;27;51233;-54
2021/07/16 07:36:16;;;;;;;;;4.00;4.00;;;;;;;;5071817;27;51010;-55
2021/07/16 07:38:43;;;;;;;;;2.67;2.67;;;;;;;;5071854;27;51247;-55
2021/07/16 07:41:08;;;;;;;;;4.00;3.00;;;;;;;;5072197;27;51167;-55
2021/07/16 07:43:33;;;;;;;;;5.00;4.00;;;;;;;;5064517;27;53094;-52
2021/07/16 07:45:58;;;;;;;;;3.00;2.67;;;;;;;;5072285;27;50957;-52
2021/07/16 07:48:24;;;;;;;;;5.33;3.67;;;;;;;;5065697;27;50895;-54
2021/07/16 07:50:49;;;;;;;;;3.00;3.00;;;;;;;;5072112;27;50865;-53
2021/07/16 07:53:14;;;;;;;;;3.00;3.00;;;;;;;;5071643;27;51144;-52
2021/07/16 07:55:39;;;;;;;;;4.00;3.00;;;;;;;;5071749;27;51062;-53
2021/07/16 07:58:05;;;;;;;;;2.67;2.67;;;;;;;;5070365;28;51793;-53
2021/07/16 08:00:30;;;;;;;;;3.00;3.00;;;;;;;;5071874;28;51319;-54
2021/07/16 08:02:55;;;;;;;;;2.00;2.00;;;;;;;;5071003;28;51964;-51
2021/07/16 08:05:21;;;;;;;;;8.00;7.00;;;;;;;;5071194;27;51146;-53
2021/07/16 08:07:46;;;;;;;;;5.00;4.00;;;;;;;;5072920;27;51070;-55
2021/07/16 08:10:13;;;;;;;;;4.00;3.33;;;;;;;;5071054;28;51124;-54
2021/07/16 08:12:38;;;;;;;;;3.00;2.00;;;;;;;;5065013;28;51709;-53
2021/07/16 08:15:06;;;;;;;;;2.00;2.00;;;;;;;;5074916;27;51242;-54
2021/07/16 08:17:31;;;;;;;;;0.00;0.00;;;;;;;;5066419;28;51059;-54
2021/07/16 08:19:56;;;;;;;;;2.00;2.00;;;;;;;;5074425;28;51269;-53
2021/07/16 08:22:21;;;;;;;;;2.00;2.00;;;;;;;;5075201;27;52437;-53
2021/07/16 08:24:48;;;;;;;;;2.33;2.00;;;;;;;;5074724;27;51056;-54
2021/07/16 08:27:13;;;;;;;;;5.33;5.33;;;;;;;;5073884;28;51103;-54
2021/07/16 08:29:38;;;;;;;;;3.00;3.00;;;;;;;;5074885;27;50982;-55
2021/07/16 08:32:03;;;;;;;;;1.33;1.00;;;;;;;;5074982;27;51086;-54
2021/07/16 08:34:32;;;;;;;;;2.33;2.33;;;;;;;;5074541;27;50935;-55
2021/07/16 08:36:57;;;;;;;;;4.67;3.00;;;;;;;;5074278;27;50934;-53
2021/07/16 08:39:23;;;;;;;;;4.00;3.33;;;;;;;;5074782;27;50993;-53
2021/07/16 08:41:48;;;;;;;;;3.00;3.00;;;;;;;;5065268;28;51925;-54
2021/07/16 08:44:14;;;;;;;;;4.00;3.00;;;;;;;;5072068;28;51160;-54
2021/07/16 08:46:42;;;;;;;;;3.00;3.00;;;;;;;;5075009;27;51595;-54
2021/07/16 08:49:08;;;;;;;;;2.00;2.00;;;;;;;;5074751;27;51330;-54
2021/07/16 08:51:33;;;;;;;;;1.67;1.33;;;;;;;;5073934;27;51182;-54
2021/07/16 08:53:58;;;;;;;;;3.00;2.00;;;;;;;;5074069;28;50986;-55
2021/07/16 08:56:25;;;;;;;;;2.67;2.00;;;;;;;;5074459;28;51104;-54
2021/07/16 08:58:50;;;;;;;;;4.33;4.33;;;;;;;;5074526;27;51275;-54
2021/07/16 09:01:16;;;;;;;;;3.00;3.00;;;;;;;;5074051;27;53220;-50
2021/07/16 09:04:01;;;;;;;;;3.00;3.00;;;;;;;;5073978;27;51053;-52
2021/07/16 09:06:45;;;;;;;;;3.00;3.00;;;;;;;;5073591;27;51345;-54
2021/07/16 09:09:10;;;;;;;;;2.33;2.33;;;;;;;;5074766;28;51066;-53
2021/07/16 09:11:43;;;;;;;;;4.00;4.00;;;;;;;;5063805;27;51176;-53
2021/07/16 09:14:16;;;;;;;;;3.67;3.67;;;;;;;;5069449;28;51008;-53
2021/07/16 09:16:51;;;;;;;;;4.67;4.00;;;;;;;;5071541;27;51072;-53
2021/07/16 09:19:25;;;;;;;;;6.00;6.00;;;;;;;;5072676;28;51108;-53
2021/07/16 09:22:00;;;;;;;;;5.00;5.00;;;;;;;;5072066;28;52046;-55
2021/07/16 09:24:25;;;;;;;;;6.00;6.00;;;;;;;;5073809;28;51035;-55
2021/07/16 09:26:50;;;;;;;;;6.33;5.67;;;;;;;;5073551;28;50929;-53
2021/07/16 09:29:25;;;;;;;;;6.00;5.33;;;;;;;;5074106;27;51277;-54
2021/07/16 09:32:00;;;;;;;;;3.00;2.00;;;;;;;;5073413;27;51795;-52
2021/07/16 09:34:25;;;;;;;;;6.00;5.33;;;;;;;;5073651;27;51227;-53
2021/07/16 09:36:50;;;;;;;;;7.33;7.33;;;;;;;;5072892;27;53032;-53
2021/07/16 09:39:18;;;;;;;;;5.67;5.00;;;;;;;;5072147;28;51404;-51
2021/07/16 09:41:54;;;;;;;;;6.00;5.00;;;;;;;;5070243;28;52034;-54
2021/07/16 09:44:46;;;;;;;;;6.33;6.00;;;;;;;;5071833;28;50914;-54
2021/07/16 09:47:16;;;;;;;;;4.00;4.00;;;;;;;;5071866;27;51197;-54
2021/07/16 09:49:42;;;;;;;;;6.00;5.67;;;;;;;;5066649;27;51211;-53
2021/07/16 09:52:08;;;;;;;;;5.00;4.67;;;;;;;;5072760;27;51011;-53
2021/07/16 09:54:34;;;;;;;;;4.33;4.33;;;;;;;;5073179;28;51094;-51
2021/07/16 09:56:59;;;;;;;;;6.33;6.00;;;;;;;;5073012;28;51120;-54
2021/07/16 09:59:28;;;;;;;;;5.00;5.00;;;;;;;;5070990;27;51099;-53
2021/07/16 10:01:53;;;;;;;;;5.67;5.33;;;;;;;;5072114;27;52264;-55
2021/07/16 10:04:20;;;;;;;;;7.33;7.33;;;;;;;;5070825;28;51075;-53
2021/07/16 10:06:47;;;;;;;;;6.67;6.67;;;;;;;;5072434;28;50822;-55
2021/07/16 10:09:13;;;;;;;;;6.00;6.00;;;;;;;;5072857;27;51278;-54
2021/07/16 10:11:39;;;;;;;;;5.33;5.33;;;;;;;;5072240;27;51956;-53
2021/07/16 10:14:04;;;;;;;;;8.00;5.00;;;;;;;;5072301;27;51589;-55
2021/07/16 10:16:30;;;;;;;;;7.67;7.00;;;;;;;;5070975;27;50990;-55
2021/07/16 10:18:56;;;;;;;;;7.33;7.33;;;;;;;;5072687;27;51281;-54
2021/07/16 10:21:22;;;;;;;;;8.33;8.00;;;;;;;;5070368;28;52124;-52
2021/07/16 10:23:49;;;;;;;;;6.00;6.00;;;;;;;;5072540;28;51048;-54
2021/07/16 10:26:14;;;;;;;;;7.67;6.67;;;;;;;;5072109;27;51017;-54
2021/07/16 10:28:41;;;;;;;;;7.33;7.00;;;;;;;;5072348;27;51287;-54
2021/07/16 10:31:25;;;;;;;;;7.67;7.67;;;;;;;;5071075;27;51765;-55
2021/07/16 10:33:50;;;;;;;;;9.67;9.00;;;;;;;;5072336;28;51105;-54
2021/07/16 10:36:35;;;;;;;;;10.33;8.67;;;;;;;;5072311;27;51014;-55
2021/07/16 10:39:01;;;;;;;;;8.00;7.67;;;;;;;;5072377;27;51341;-54
2021/07/16 10:41:35;;;;;;;;;7.00;7.00;;;;;;;;5068487;27;51932;-54
2021/07/16 10:44:01;;;;;;;;;9.00;8.33;;;;;;;;5071507;27;51085;-55
2021/07/16 10:46:27;;;;;;;;;7.67;7.00;;;;;;;;5072077;27;51373;-54
2021/07/16 10:48:52;;;;;;;;;12.00;11.00;;;;;;;;5071943;27;51166;-55
2021/07/16 10:51:22;;;;;;;;;10.67;9.33;;;;;;;;5071449;27;52076;-54
2021/07/16 10:53:48;;;;;;;;;10.67;10.33;;;;;;;;5071881;27;51068;-54
2021/07/16 10:56:18;;;;;;;;;12.00;11.00;;;;;;;;5072094;27;50854;-52
2021/07/16 10:58:44;;;;;;;;;10.33;9.00;;;;;;;;5071937;27;51161;-54
2021/07/16 11:01:09;;;;;;;;;10.33;10.33;;;;;;;;5071800;27;51818;-55
2021/07/16 11:03:39;;;;;;;;;13.33;11.33;;;;;;;;5072285;27;51079;-55
2021/07/16 11:06:05;;;;;;;;;11.00;11.00;;;;;;;;5069527;27;50947;-53
2021/07/16 11:08:32;;;;;;;;;13.50;12.25;;;;;;;;5070074;28;51437;-55
2021/07/16 11:11:07;;;;;;;;;11.33;11.33;;;;;;;;5071581;27;50995;-54
2021/07/16 11:13:35;;;;;;;;;13.00;11.00;;;;;;;;5070041;27;51122;-55
2021/07/16 11:16:16;;;;;;;;;10.00;7.00;;;;;;;;5063832;27;51120;-53
2021/07/16 11:18:54;;;;;;;;;9.00;9.00;;;;;;;;5069187;28;51219;-52
2021/07/16 11:21:39;;;;;;;;;11.00;9.33;;;;;;;;5070829;27;51992;-55
2021/07/16 11:24:04;;;;;;;;;10.00;9.00;;;;;;;;5071354;27;51087;-55
2021/07/16 11:26:31;;;;;;;;;10.67;9.00;;;;;;;;5071231;27;51032;-55
2021/07/16 11:28:56;;;;;;;;;11.67;11.67;;;;;;;;5071774;27;51311;-53
2021/07/16 11:31:21;;;;;;;;;11.00;11.00;;;;;;;;5071024;27;51208;-54
2021/07/16 11:33:56;;;;;;;;;12.00;10.67;;;;;;;;5071157;27;51052;-52
2021/07/16 11:36:22;;;;;;;;;11.00;11.00;;;;;;;;5070767;27;51451;-53
2021/07/16 11:38:54;;;;;;;;;13.67;13.00;;;;;;;;5069138;27;51121;-53
2021/07/16 11:41:28;;;;;;;;;13.67;12.33;;;;;;;;5070338;27;51934;-53
2021/07/16 11:43:53;;;;;;;;;12.00;12.00;;;;;;;;5074385;27;50987;-54
2021/07/16 11:46:26;;;;;;;;;11.33;10.67;;;;;;;;5074626;28;51234;-55
2021/07/16 11:48:51;;;;;;;;;15.67;14.33;;;;;;;;5072422;27;50811;-51
2021/07/16 11:51:25;;;;;;;;;14.33;13.33;;;;;;;;5066542;28;52316;-55
2021/07/16 11:53:50;;;;;;;;;12.00;12.00;;;;;;;;5074405;27;51070;-55
2021/07/16 11:56:16;;;;;;;;;10.33;10.33;;;;;;;;5074716;27;50899;-53
2021/07/16 11:58:48;;;;;;;;;11.00;10.00;;;;;;;;5075119;28;50941;-55
2021/07/16 12:01:14;;;;;;;;;11.33;11.00;;;;;;;;5074308;27;52414;-54
2021/07/16 12:03:39;;;;;;;;;9.67;9.67;;;;;;;;5074656;27;50941;-53
2021/07/16 12:06:06;;;;;;;;;12.00;11.00;;;;;;;;5074212;27;51179;-56
2021/07/16 12:08:34;;;;;;;;;13.00;12.33;;;;;;;;5074271;27;51456;-54
2021/07/16 12:11:10;;;;;;;;;11.00;10.33;;;;;;;;5074319;27;51714;-54
2021/07/16 12:13:36;;;;;;;;;11.00;11.00;;;;;;;;5073974;27;51070;-53
2021/07/16 12:16:03;;;;;;;;;10.00;10.00;;;;;;;;5066614;27;51073;-54
2021/07/16 12:18:29;;;;;;;;;12.00;11.00;;;;;;;;5074049;27;51323;-53
2021/07/16 12:20:56;;;;;;;;;12.00;11.33;;;;;;;;5071923;28;51806;-54
2021/07/16 12:23:21;;;;;;;;;10.00;10.00;;;;;;;;5073903;27;50956;-54
2021/07/16 12:25:47;;;;;;;;;13.67;13.67;;;;;;;;5073957;27;50881;-55
2021/07/16 12:28:20;;;;;;;;;12.67;11.33;;;;;;;;5074418;27;51201;-53
2021/07/16 12:30:46;;;;;;;;;12.33;11.67;;;;;;;;5073352;27;52000;-54
2021/07/16 12:33:11;;;;;;;;;7.67;7.33;;;;;;;;5073964;27;50942;-54
2021/07/16 12:35:41;;;;;;;;;15.67;14.00;;;;;;;;5070667;27;50840;-55
2021/07/16 12:38:13;;;;;;;;;17.00;15.00;;;;;;;;5073762;28;51462;-54
2021/07/16 12:40:39;;;;;;;;;14.33;13.00;;;;;;;;5073105;27;52158;-54
2021/07/16 12:43:14;;;;;;;;;13.33;12.67;;;;;;;;5072987;27;51462;-55
2021/07/16 12:45:51;;;;;;;;;14.67;13.67;;;;;;;;5072721;27;51028;-54
2021/07/16 12:48:29;;;;;;;;;14.33;13.00;;;;;;;;5072759;27;51293;-54
2021/07/16 12:51:04;;;;;;;;;15.33;14.00;;;;;;;;5072780;27;52333;-54
2021/07/16 12:53:33;;;;;;;;;16.00;14.00;;;;;;;;5072200;27;50950;-55
2021/07/16 12:56:12;;;;;;;;;12.33;11.33;;;;;;;;5073171;28;51039;-55
2021/07/16 12:58:37;;;;;;;;;12.00;12.00;;;;;;;;5073191;28;50945;-55
2021/07/16 13:01:02;;;;;;;;;10.00;10.00;;;;;;;;5073258;28;52273;-54
2021/07/16 13:03:29;;;;;;;;;14.00;14.00;;;;;;;;5073275;27;51147;-53
2021/07/16 13:05:54;;;;;;;;;14.33;14.00;;;;;;;;5072407;27;51222;-56
2021/07/16 13:08:24;;;;;;;;;11.00;11.00;;;;;;;;5073022;28;51070;-52
2021/07/16 13:11:00;;;;;;;;;13.00;12.00;;;;;;;;5072649;27;51994;-55
2021/07/16 13:13:27;;;;;;;;;11.33;10.67;;;;;;;;5073403;27;51071;-54
2021/07/16 13:16:08;;;;;;;;;14.00;12.00;;;;;;;;5066329;27;51096;-57
2021/07/16 13:18:34;;;;;;;;;10.33;10.33;;;;;;;;5085726;27;50892;-54
2021/07/16 13:21:00;;;;;;;;;13.00;13.00;;;;;;;;5066660;28;52094;-54
2021/07/16 13:23:25;;;;;;;;;14.00;14.00;;;;;;;;5072864;27;50983;-54
2021/07/16 13:25:54;;;;;;;;;13.33;13.33;;;;;;;;5072988;27;51712;-55
2021/07/16 13:28:20;;;;;;;;;14.00;13.00;;;;;;;;5072988;27;50930;-53
2021/07/16 13:30:45;;;;;;;;;17.33;17.00;;;;;;;;5071740;28;51925;-53
2021/07/16 13:33:10;;;;;;;;;16.00;13.00;;;;;;;;5072905;27;50950;-54
2021/07/16 13:35:35;;;;;;;;;14.00;13.00;;;;;;;;5070750;27;51112;-53
2021/07/16 13:38:01;;;;;;;;;19.00;17.00;;;;;;;;5073455;27;51158;-54
2021/07/16 13:40:26;;;;;;;;;13.00;13.00;;;;;;;;5072705;27;51071;-55
2021/07/16 13:42:52;;;;;;;;;13.00;13.00;;;;;;;;5073236;27;51046;-55
2021/07/16 13:45:17;;;;;;;;;8.33;8.33;;;;;;;;5072626;27;51192;-55
2021/07/16 13:47:42;;;;;;;;;12.00;12.00;;;;;;;;5072984;27;51190;-54
2021/07/16 13:50:08;;;;;;;;;13.33;10.33;;;;;;;;5069861;27;52097;-54
2021/07/16 13:52:34;;;;;;;;;12.33;12.33;;;;;;;;5060475;27;51080;-56
2021/07/16 13:54:59;;;;;;;;;12.33;12.00;;;;;;;;5072369;27;51073;-55
2021/07/16 13:57:24;;;;;;;;;15.67;15.33;;;;;;;;5072557;27;51260;-53
2021/07/16 13:59:49;;;;;;;;;14.00;12.33;;;;;;;;5072156;27;52282;-55
2021/07/16 14:02:15;;;;;;;;;11.33;11.33;;;;;;;;5072742;28;51032;-56
2021/07/16 14:04:40;;;;;;;;;12.33;12.33;;;;;;;;5072029;27;50929;-54
2021/07/16 14:07:05;;;;;;;;;15.33;15.00;;;;;;;;5072522;28;51208;-55
2021/07/16 14:09:31;;;;;;;;;13.00;13.00;;;;;;;;5070527;28;51068;-54
2021/07/16 14:11:58;;;;;;;;;13.67;13.67;;;;;;;;5070959;28;51101;-55
2021/07/16 14:14:23;;;;;;;;;15.00;13.00;;;;;;;;5072754;27;51091;-55
2021/07/16 14:16:49;;;;;;;;;10.00;10.00;;;;;;;;5064610;27;51089;-53
2021/07/16 14:19:14;;;;;;;;;13.33;13.00;;;;;;;;5072730;28;51827;-54
2021/07/16 14:21:43;;;;;;;;;10.67;10.33;;;;;;;;5072562;27;50868;-56
2021/07/16 14:24:08;;;;;;;;;12.00;12.00;;;;;;;;5073242;27;51065;-55
2021/07/16 14:26:33;;;;;;;;;14.00;13.00;;;;;;;;5072893;27;51183;-56
2021/07/16 14:29:05;;;;;;;;;14.33;13.33;;;;;;;;5072500;28;51879;-54